sensor_id;sensor_type;location;lat;lon;timestamp;temperature;humidity
14154;DHT22;7157;53.144;7.570;2022-12-07T00:00:40;4.41;97.70
14154;DHT22;7157;53.144;7.570;2022-12-07T00:10:44;4.41;97.52
14154;DHT22;7157;53.144;7.570;2022-12-07T00:20:47;4.29;97.71
14154;DHT22;7157;53.144;7.570;2022-12-07T00:30:51;4.08;97.76
14154;DHT22;7157;53.144;7.570;2022-12-07T00:40:55;4.01;97.27
14154;DHT22;7157;53.144;7.570;2022-12-07T00:51:00;3.94;96.78
14154;DHT22;7157;53.144;7.570;2022-12-07T01:01:04;3.87;96.73
14154;DHT22;7157;53.144;7.570;2022-12-07T01:11:12;3.88;96.19
14154;DHT22;7157;53.144;7.570;2022-12-07T01:21:17;3.86;95.89
14154;DHT22;7157;53.144;7.570;2022-12-07T01:31:25;4.05;95.02
14154;DHT22;7157;53.144;7.570;2022-12-07T01:41:32;4.13;94.52
14154;DHT22;7157;53.144;7.570;2022-12-07T01:51:37;4.20;94.05
14154;DHT22;7157;53.144;7.570;2022-12-07T02:01:41;4.33;93.17
14154;DHT22;7157;53.144;7.570;2022-12-07T02:11:45;4.23;93.46
14154;DHT22;7157;53.144;7.570;2022-12-07T02:21:51;4.15;93.23
14154;DHT22;7157;53.144;7.570;2022-12-07T02:32:04;4.03;93.78
14154;DHT22;7157;53.144;7.570;2022-12-07T02:42:13;4.07;93.99
14154;DHT22;7157;53.144;7.570;2022-12-07T02:52:17;4.10;94.52
14154;DHT22;7157;53.144;7.570;2022-12-07T03:02:25;4.23;94.69
14154;DHT22;7157;53.144;7.570;2022-12-07T03:12:40;4.45;94.58
14154;DHT22;7157;53.144;7.570;2022-12-07T03:22:46;4.58;94.58
14154;DHT22;7157;53.144;7.570;2022-12-07T03:32:54;4.60;94.73
14154;DHT22;7157;53.144;7.570;2022-12-07T03:43:00;4.41;95.01
14154;DHT22;7157;53.144;7.570;2022-12-07T03:53:09;4.45;94.98
14154;DHT22;7157;53.144;7.570;2022-12-07T04:03:14;4.65;94.43
14154;DHT22;7157;53.144;7.570;2022-12-07T04:13:18;4.62;94.73
14154;DHT22;7157;53.144;7.570;2022-12-07T04:23:21;4.39;95.07
14154;DHT22;7157;53.144;7.570;2022-12-07T04:33:25;4.37;95.17
14154;DHT22;7157;53.144;7.570;2022-12-07T04:43:27;4.31;95.45
14154;DHT22;7157;53.144;7.570;2022-12-07T04:53:31;4.49;94.56
14154;DHT22;7157;53.144;7.570;2022-12-07T05:03:35;4.14;95.83
14154;DHT22;7157;53.144;7.570;2022-12-07T05:13:39;3.98;96.78
14154;DHT22;7157;53.144;7.570;2022-12-07T05:23:42;3.79;97.43
14154;DHT22;7157;53.144;7.570;2022-12-07T05:33:46;3.75;97.91
14154;DHT22;7157;53.144;7.570;2022-12-07T05:43:49;3.93;98.00
14154;DHT22;7157;53.144;7.570;2022-12-07T05:53:53;4.08;97.58
14154;DHT22;7157;53.144;7.570;2022-12-07T06:03:56;4.10;97.40
14154;DHT22;7157;53.144;7.570;2022-12-07T06:14:00;4.33;96.89
14154;DHT22;7157;53.144;7.570;2022-12-07T06:24:03;4.26;96.84
14154;DHT22;7157;53.144;7.570;2022-12-07T06:34:11;4.28;96.58
14154;DHT22;7157;53.144;7.570;2022-12-07T06:44:14;4.03;96.85
14154;DHT22;7157;53.144;7.570;2022-12-07T06:54:18;4.04;96.90
14154;DHT22;7157;53.144;7.570;2022-12-07T07:04:21;3.93;96.57
14154;DHT22;7157;53.144;7.570;2022-12-07T07:14:25;4.00;96.50
14154;DHT22;7157;53.144;7.570;2022-12-07T07:24:27;4.16;96.33
14154;DHT22;7157;53.144;7.570;2022-12-07T07:34:32;3.93;96.42
14154;DHT22;7157;53.144;7.570;2022-12-07T07:44:34;3.72;96.85
14154;DHT22;7157;53.144;7.570;2022-12-07T07:54:38;3.65;97.31
14154;DHT22;7157;53.144;7.570;2022-12-07T08:04:41;3.62;97.56
14154;DHT22;7157;53.144;7.570;2022-12-07T08:14:46;3.86;97.18
14154;DHT22;7157;53.144;7.570;2022-12-07T08:24:49;3.79;96.97
14154;DHT22;7157;53.144;7.570;2022-12-07T08:34:53;3.75;97.09
14154;DHT22;7157;53.144;7.570;2022-12-07T08:44:56;3.84;96.95
14154;DHT22;7157;53.144;7.570;2022-12-07T08:55:01;4.18;96.39
14154;DHT22;7157;53.144;7.570;2022-12-07T09:05:05;4.44;95.91
14154;DHT22;7157;53.144;7.570;2022-12-07T09:15:16;4.52;94.92
14154;DHT22;7157;53.144;7.570;2022-12-07T09:25:19;4.91;94.27
14154;DHT22;7157;53.144;7.570;2022-12-07T09:35:24;5.50;91.98
14154;DHT22;7157;53.144;7.570;2022-12-07T09:45:30;5.36;91.46
14154;DHT22;7157;53.144;7.570;2022-12-07T09:55:37;5.62;91.74
14154;DHT22;7157;53.144;7.570;2022-12-07T10:05:44;5.72;90.41
14154;DHT22;7157;53.144;7.570;2022-12-07T10:15:51;6.15;91.27
14154;DHT22;7157;53.144;7.570;2022-12-07T10:25:54;5.90;89.27
14154;DHT22;7157;53.144;7.570;2022-12-07T10:35:59;6.15;89.81
14154;DHT22;7157;53.144;7.570;2022-12-07T10:57:00;5.84;85.64
14154;DHT22;7157;53.144;7.570;2022-12-07T11:07:12;5.63;88.44
14154;DHT22;7157;53.144;7.570;2022-12-07T11:17:22;5.83;87.28
14154;DHT22;7157;53.144;7.570;2022-12-07T11:27:32;6.53;85.23
14154;DHT22;7157;53.144;7.570;2022-12-07T11:37:39;6.82;84.84
14154;DHT22;7157;53.144;7.570;2022-12-07T11:47:51;7.08;81.91
14154;DHT22;7157;53.144;7.570;2022-12-07T11:58:03;7.38;81.11
14154;DHT22;7157;53.144;7.570;2022-12-07T12:08:14;7.02;80.24
14154;DHT22;7157;53.144;7.570;2022-12-07T12:18:58;7.18;79.94
14154;DHT22;7157;53.144;7.570;2022-12-07T12:29:13;7.00;81.01
14154;DHT22;7157;53.144;7.570;2022-12-07T12:39:23;7.58;79.44
14154;DHT22;7157;53.144;7.570;2022-12-07T12:49:35;9.56;72.09
14154;DHT22;7157;53.144;7.570;2022-12-07T12:59:41;8.71;75.10
14154;DHT22;7157;53.144;7.570;2022-12-07T13:09:45;10.92;71.24
14154;DHT22;7157;53.144;7.570;2022-12-07T13:19:58;10.11;71.03
14154;DHT22;7157;53.144;7.570;2022-12-07T13:30:13;7.87;78.95
14154;DHT22;7157;53.144;7.570;2022-12-07T13:40:20;7.13;81.73
14154;DHT22;7157;53.144;7.570;2022-12-07T13:50:24;7.12;81.88
14154;DHT22;7157;53.144;7.570;2022-12-07T14:00:29;6.64;83.10
14154;DHT22;7157;53.144;7.570;2022-12-07T14:10:34;6.00;85.16
14154;DHT22;7157;53.144;7.570;2022-12-07T14:20:40;5.75;86.61
14154;DHT22;7157;53.144;7.570;2022-12-07T14:30:43;5.53;87.77
14154;DHT22;7157;53.144;7.570;2022-12-07T14:40:48;5.39;87.96
14154;DHT22;7157;53.144;7.570;2022-12-07T14:50:52;5.35;87.16
14154;DHT22;7157;53.144;7.570;2022-12-07T15:01:16;4.73;88.12
14154;DHT22;7157;53.144;7.570;2022-12-07T15:11:20;4.71;87.89
14154;DHT22;7157;53.144;7.570;2022-12-07T15:21:24;4.50;88.22
14154;DHT22;7157;53.144;7.570;2022-12-07T15:31:27;4.45;88.49
14154;DHT22;7157;53.144;7.570;2022-12-07T15:41:51;4.44;89.18
14154;DHT22;7157;53.144;7.570;2022-12-07T15:51:54;4.67;88.96
14154;DHT22;7157;53.144;7.570;2022-12-07T16:01:58;4.52;90.34
14154;DHT22;7157;53.144;7.570;2022-12-07T16:12:01;4.12;92.30
14154;DHT22;7157;53.144;7.570;2022-12-07T16:22:05;2.84;93.99
14154;DHT22;7157;53.144;7.570;2022-12-07T16:32:07;2.50;96.33
14154;DHT22;7157;53.144;7.570;2022-12-07T16:42:11;2.68;97.32
14154;DHT22;7157;53.144;7.570;2022-12-07T16:52:14;2.84;97.29
14154;DHT22;7157;53.144;7.570;2022-12-07T17:02:23;2.65;98.32
14154;DHT22;7157;53.144;7.570;2022-12-07T17:12:26;2.67;98.42
14154;DHT22;7157;53.144;7.570;2022-12-07T17:22:30;2.59;99.50
14154;DHT22;7157;53.144;7.570;2022-12-07T17:32:32;2.95;98.41
14154;DHT22;7157;53.144;7.570;2022-12-07T17:42:37;3.00;98.42
14154;DHT22;7157;53.144;7.570;2022-12-07T17:52:40;3.16;98.19
14154;DHT22;7157;53.144;7.570;2022-12-07T18:03:03;3.26;98.22
14154;DHT22;7157;53.144;7.570;2022-12-07T18:13:06;3.34;98.04
14154;DHT22;7157;53.144;7.570;2022-12-07T18:23:28;3.32;98.13
14154;DHT22;7157;53.144;7.570;2022-12-07T18:33:31;3.34;98.19
14154;DHT22;7157;53.144;7.570;2022-12-07T18:43:35;3.21;98.43
14154;DHT22;7157;53.144;7.570;2022-12-07T18:53:38;3.39;98.51
14154;DHT22;7157;53.144;7.570;2022-12-07T19:03:42;3.39;98.67
14154;DHT22;7157;53.144;7.570;2022-12-07T19:13:45;3.31;99.19
14154;DHT22;7157;53.144;7.570;2022-12-07T19:23:49;3.28;99.38
14154;DHT22;7157;53.144;7.570;2022-12-07T19:33:51;3.31;99.25
14154;DHT22;7157;53.144;7.570;2022-12-07T19:43:56;3.31;99.25
14154;DHT22;7157;53.144;7.570;2022-12-07T19:54:01;3.31;99.35
14154;DHT22;7157;53.144;7.570;2022-12-07T20:04:06;3.47;99.33
14154;DHT22;7157;53.144;7.570;2022-12-07T20:14:10;3.47;99.10
14154;DHT22;7157;53.144;7.570;2022-12-07T20:24:16;3.40;99.45
14154;DHT22;7157;53.144;7.570;2022-12-07T20:34:20;3.44;99.34
14154;DHT22;7157;53.144;7.570;2022-12-07T20:44:24;3.42;99.35
14154;DHT22;7157;53.144;7.570;2022-12-07T20:54:27;3.61;99.00
14154;DHT22;7157;53.144;7.570;2022-12-07T21:04:31;3.65;98.58
14154;DHT22;7157;53.144;7.570;2022-12-07T21:14:34;3.33;98.52
14154;DHT22;7157;53.144;7.570;2022-12-07T21:24:38;3.25;99.25
14154;DHT22;7157;53.144;7.570;2022-12-07T21:34:42;3.12;99.15
14154;DHT22;7157;53.144;7.570;2022-12-07T21:44:46;3.18;99.33
14154;DHT22;7157;53.144;7.570;2022-12-07T21:54:49;3.19;99.01
14154;DHT22;7157;53.144;7.570;2022-12-07T22:04:53;3.19;99.32
14154;DHT22;7157;53.144;7.570;2022-12-07T22:14:56;3.29;99.32
14154;DHT22;7157;53.144;7.570;2022-12-07T22:25:10;3.19;99.20
14154;DHT22;7157;53.144;7.570;2022-12-07T22:35:13;3.04;99.34
14154;DHT22;7157;53.144;7.570;2022-12-07T22:45:18;2.97;99.38
14154;DHT22;7157;53.144;7.570;2022-12-07T22:55:20;3.03;99.46
14154;DHT22;7157;53.144;7.570;2022-12-07T23:05:24;3.08;99.29
14154;DHT22;7157;53.144;7.570;2022-12-07T23:15:28;3.17;99.23
14154;DHT22;7157;53.144;7.570;2022-12-07T23:25:32;2.96;99.03
14154;DHT22;7157;53.144;7.570;2022-12-07T23:35:35;3.18;99.13
14154;DHT22;7157;53.144;7.570;2022-12-07T23:45:44;3.34;99.16
14154;DHT22;7157;53.144;7.570;2022-12-07T23:55:46;3.48;99.20
